createdAt,value
2022-11-17T00:01:25.360Z,3.10
2022-11-17T00:06:30.926Z,3.20
2022-11-17T00:11:38.230Z,3.40
2022-11-17T00:16:43.530Z,3.40
2022-11-17T00:21:48.728Z,3.20
2022-11-17T00:27:03.562Z,3.00
2022-11-17T00:32:31.665Z,2.80
2022-11-17T00:37:41.330Z,2.90
2022-11-17T00:42:47.757Z,3.00
2022-11-17T00:47:53.163Z,2.90
2022-11-17T00:52:58.577Z,3.00
2022-11-17T00:58:03.643Z,2.70
2022-11-17T01:03:08.805Z,2.50
2022-11-17T01:08:15.426Z,3.00
2022-11-17T01:13:20.465Z,3.10
2022-11-17T01:18:25.729Z,3.20
2022-11-17T01:23:30.779Z,3.30
2022-11-17T01:28:37.740Z,3.20
2022-11-17T01:33:43.980Z,3.20
2022-11-17T01:38:49.695Z,3.20
2022-11-17T01:44:00.621Z,2.90
2022-11-17T01:49:14.533Z,3.10
2022-11-17T01:54:23.758Z,3.10
2022-11-17T01:59:37.765Z,3.20
2022-11-17T02:04:50.152Z,3.10
2022-11-17T02:09:56.540Z,3.10
2022-11-17T02:15:02.192Z,3.10
2022-11-17T02:20:10.391Z,3.00
2022-11-17T02:25:32.732Z,3.10
2022-11-17T02:31:12.557Z,3.00
2022-11-17T02:36:21.684Z,3.10
2022-11-17T02:41:29.657Z,3.10
2022-11-17T02:46:37.916Z,3.10
2022-11-17T02:51:44.626Z,3.00
2022-11-17T02:56:49.824Z,3.10
2022-11-17T03:02:18.542Z,3.00
2022-11-17T03:07:29.385Z,3.10
2022-11-17T03:12:49.413Z,3.00
2022-11-17T03:18:00.678Z,3.10
2022-11-17T03:23:20.822Z,2.60
2022-11-17T03:28:29.256Z,2.20
2022-11-17T03:33:36.341Z,2.10
2022-11-17T03:38:44.692Z,2.30
2022-11-17T03:43:51.909Z,2.20
2022-11-17T03:49:00.446Z,2.20
2022-11-17T03:54:06.031Z,2.30
2022-11-17T03:59:23.356Z,2.10
2022-11-17T04:04:30.544Z,2.00
2022-11-17T04:09:35.737Z,2.40
2022-11-17T04:14:58.195Z,2.20
2022-11-17T04:20:03.216Z,2.50
2022-11-17T04:25:08.820Z,2.50
2022-11-17T04:30:14.079Z,2.40
2022-11-17T04:35:19.526Z,2.40
2022-11-17T04:40:24.677Z,2.40
2022-11-17T04:45:29.660Z,2.20
2022-11-17T04:50:35.958Z,2.10
2022-11-17T04:55:41.299Z,2.20
2022-11-17T05:00:46.941Z,2.30
2022-11-17T05:05:51.880Z,2.20
2022-11-17T05:11:16.662Z,2.40
2022-11-17T05:16:40.173Z,2.50
2022-11-17T05:21:46.347Z,2.50
2022-11-17T05:26:51.816Z,2.50
2022-11-17T05:31:57.684Z,2.60
2022-11-17T05:37:02.572Z,2.80
2022-11-17T05:42:07.699Z,3.00
2022-11-17T05:47:12.738Z,2.60
2022-11-17T05:52:18.673Z,2.40
2022-11-17T05:57:28.229Z,2.50
2022-11-17T06:02:42.186Z,2.40
2022-11-17T06:07:48.522Z,2.40
2022-11-17T06:12:53.912Z,2.40
2022-11-17T06:18:02.212Z,2.40
2022-11-17T06:23:09.914Z,2.50
2022-11-17T06:28:18.580Z,2.50
2022-11-17T06:33:26.310Z,2.50
2022-11-17T06:38:33.266Z,2.50
2022-11-17T06:43:38.135Z,2.50
2022-11-17T06:48:43.160Z,2.60
2022-11-17T06:53:48.283Z,2.50
2022-11-17T06:58:55.336Z,2.50
2022-11-17T07:04:00.232Z,2.50
2022-11-17T07:09:06.314Z,2.50
2022-11-17T07:14:13.357Z,2.60
2022-11-17T07:19:19.786Z,2.50
2022-11-17T07:24:24.678Z,2.60
2022-11-17T07:29:30.812Z,2.60
2022-11-17T07:34:35.693Z,2.70
2022-11-17T07:39:41.454Z,2.80
2022-11-17T07:44:46.493Z,2.90
2022-11-17T07:49:51.380Z,3.00
2022-11-17T07:54:56.426Z,3.40
2022-11-17T08:00:01.615Z,3.30
2022-11-17T08:05:06.980Z,3.20
2022-11-17T08:10:12.303Z,3.00
2022-11-17T08:15:17.594Z,3.00
2022-11-17T08:20:24.288Z,3.10
2022-11-17T08:25:28.598Z,3.10
2022-11-17T08:30:35.429Z,3.10
2022-11-17T08:35:39.549Z,2.90
2022-11-17T08:40:45.935Z,3.00
2022-11-17T08:45:51.788Z,2.90
2022-11-17T08:50:57.009Z,3.00
2022-11-17T08:56:02.571Z,3.00
2022-11-17T09:01:15.345Z,3.00
2022-11-17T09:06:21.237Z,3.20
2022-11-17T09:11:26.779Z,3.10
2022-11-17T09:16:31.950Z,3.20
2022-11-17T09:21:37.004Z,3.30
2022-11-17T09:26:42.979Z,3.50
2022-11-17T09:31:48.398Z,3.40
2022-11-17T09:36:53.622Z,3.50
2022-11-17T09:41:59.213Z,3.50
2022-11-17T09:47:40.349Z,3.40
2022-11-17T09:53:04.691Z,3.30
2022-11-17T09:58:35.246Z,3.50
2022-11-17T10:03:46.380Z,3.60
2022-11-17T10:09:02.772Z,3.60
2022-11-17T10:14:16.646Z,3.80
2022-11-17T10:19:29.395Z,3.80
2022-11-17T10:24:38.132Z,3.70
2022-11-17T10:29:45.320Z,3.70
2022-11-17T10:34:50.243Z,3.70
2022-11-17T10:40:13.247Z,3.60
2022-11-17T10:45:19.550Z,3.50
2022-11-17T10:50:27.718Z,3.50
2022-11-17T10:55:34.505Z,3.60
2022-11-17T11:00:40.739Z,3.60
2022-11-17T11:06:20.159Z,3.60
2022-11-17T11:11:33.306Z,3.50
2022-11-17T11:16:35.681Z,3.60
2022-11-17T11:22:01.976Z,3.60
2022-11-17T11:27:26.179Z,3.60
2022-11-17T11:33:03.160Z,3.70
2022-11-17T11:38:12.751Z,3.60
2022-11-17T11:43:20.739Z,3.70
2022-11-17T11:48:29.448Z,3.60
2022-11-17T11:53:59.268Z,3.80
2022-11-17T11:59:10.188Z,3.60
2022-11-17T12:04:49.321Z,3.60
2022-11-17T12:10:09.175Z,3.50
2022-11-17T12:15:23.253Z,3.60
2022-11-17T12:20:43.454Z,3.60
2022-11-17T12:25:58.316Z,3.60
2022-11-17T12:31:10.405Z,3.50
2022-11-17T12:36:30.474Z,3.60
2022-11-17T12:41:54.945Z,3.80
2022-11-17T12:47:03.649Z,3.70
2022-11-17T12:52:11.842Z,3.70
2022-11-17T12:57:23.340Z,3.60
2022-11-17T13:02:43.782Z,3.60
2022-11-17T13:07:48.832Z,3.60
2022-11-17T13:13:03.274Z,3.80
2022-11-17T13:18:17.088Z,3.80
2022-11-17T13:23:28.437Z,3.40
2022-11-17T13:28:34.308Z,3.50
2022-11-17T13:33:40.842Z,3.50
2022-11-17T13:38:52.045Z,3.40
2022-11-17T13:43:58.034Z,3.30
2022-11-17T13:49:05.211Z,3.30
2022-11-17T13:54:17.188Z,3.30
2022-11-17T13:59:35.314Z,3.20
2022-11-17T14:04:40.952Z,3.20
2022-11-17T14:09:45.838Z,3.10
2022-11-17T14:14:51.640Z,3.00
2022-11-17T14:19:56.616Z,2.90
2022-11-17T14:25:02.912Z,2.80
2022-11-17T14:30:09.952Z,2.80
2022-11-17T14:35:19.438Z,2.80
2022-11-17T14:40:22.884Z,2.80
2022-11-17T14:45:28.319Z,2.80
2022-11-17T14:50:33.883Z,2.70
2022-11-17T14:55:39.862Z,2.70
2022-11-17T15:00:44.878Z,2.70
2022-11-17T15:05:50.269Z,2.70
2022-11-17T15:10:55.387Z,2.70
2022-11-17T15:16:05.532Z,2.60
2022-11-17T15:21:11.717Z,2.60
2022-11-17T15:26:20.675Z,2.60
2022-11-17T15:31:26.392Z,2.50
2022-11-17T15:36:32.027Z,2.50
2022-11-17T15:41:37.035Z,2.50
2022-11-17T15:46:47.163Z,2.50
2022-11-17T15:51:49.028Z,2.50
2022-11-17T15:56:54.644Z,2.50
2022-11-17T16:01:59.705Z,2.50
2022-11-17T16:07:05.384Z,2.50
2022-11-17T16:12:10.764Z,2.50
2022-11-17T16:17:16.151Z,2.50
2022-11-17T16:22:21.609Z,2.50
2022-11-17T16:27:27.137Z,2.50
2022-11-17T16:32:33.288Z,2.40
2022-11-17T16:37:38.825Z,2.40
2022-11-17T16:42:45.085Z,2.40
2022-11-17T16:47:50.425Z,2.30
2022-11-17T16:52:55.338Z,2.40
2022-11-17T16:58:00.418Z,2.40
2022-11-17T17:03:05.911Z,2.40
2022-11-17T17:08:11.081Z,2.40
2022-11-17T17:13:16.050Z,2.40
2022-11-17T17:18:21.380Z,2.30
2022-11-17T17:23:27.746Z,2.30
2022-11-17T17:28:34.845Z,2.20
2022-11-17T17:33:41.089Z,2.20
2022-11-17T17:38:50.315Z,2.10
2022-11-17T17:44:00.260Z,2.00
2022-11-17T17:49:06.648Z,2.00
2022-11-17T17:54:20.132Z,2.10
2022-11-17T17:59:25.217Z,2.10
2022-11-17T18:04:30.423Z,2.10
2022-11-17T18:09:36.460Z,2.20
2022-11-17T18:14:41.597Z,2.20
2022-11-17T18:19:47.456Z,2.20
2022-11-17T18:24:57.360Z,2.20
2022-11-17T18:29:58.701Z,2.20
2022-11-17T18:35:04.159Z,2.20
2022-11-17T18:40:12.170Z,2.20
2022-11-17T18:45:17.945Z,2.20
2022-11-17T18:50:23.120Z,2.20
2022-11-17T18:55:29.013Z,2.20
2022-11-17T19:00:34.652Z,2.20
2022-11-17T19:05:40.101Z,2.20
2022-11-17T19:10:55.163Z,2.20
2022-11-17T19:16:17.790Z,2.20
2022-11-17T19:21:26.727Z,2.20
2022-11-17T19:26:34.751Z,2.30
2022-11-17T19:31:39.712Z,2.20
2022-11-17T19:36:45.219Z,2.20
2022-11-17T19:41:50.508Z,2.30
2022-11-17T19:46:55.624Z,2.30
2022-11-17T19:52:01.426Z,2.30
2022-11-17T19:57:06.744Z,2.30
2022-11-17T20:02:15.034Z,2.50
2022-11-17T20:07:21.462Z,2.60
2022-11-17T20:12:27.215Z,2.70
2022-11-17T20:17:33.337Z,2.70
2022-11-17T20:22:40.102Z,2.70
2022-11-17T20:27:45.552Z,2.70
2022-11-17T20:32:50.785Z,2.70
2022-11-17T20:37:56.631Z,2.60
2022-11-17T20:43:02.412Z,2.70
2022-11-17T20:48:07.827Z,2.70
2022-11-17T20:53:12.996Z,2.70
2022-11-17T20:58:20.076Z,2.80
2022-11-17T21:03:28.053Z,2.70
2022-11-17T21:08:37.420Z,2.80
2022-11-17T21:13:42.429Z,2.80
2022-11-17T21:18:49.489Z,2.80
2022-11-17T21:23:56.080Z,2.80
2022-11-17T21:29:06.416Z,2.70
2022-11-17T21:34:11.092Z,2.50
2022-11-17T21:39:19.609Z,2.50
2022-11-17T21:44:25.193Z,2.60
2022-11-17T21:49:30.725Z,2.60
2022-11-17T21:54:37.015Z,2.80
2022-11-17T21:59:41.921Z,2.70
2022-11-17T22:04:47.106Z,2.80
2022-11-17T22:09:52.003Z,2.80
2022-11-17T22:14:57.505Z,2.90
2022-11-17T22:20:02.627Z,2.80
2022-11-17T22:25:37.576Z,2.90
2022-11-17T22:30:15.516Z,2.80
2022-11-17T22:35:20.461Z,2.70
2022-11-17T22:40:25.820Z,2.50
2022-11-17T22:45:31.419Z,2.50
2022-11-17T22:50:38.422Z,2.60
2022-11-17T22:55:43.584Z,2.70
2022-11-17T23:00:49.021Z,2.60
2022-11-17T23:05:53.889Z,2.50
2022-11-17T23:11:34.979Z,2.60
2022-11-17T23:16:11.566Z,2.60
2022-11-17T23:21:17.118Z,2.60
2022-11-17T23:26:22.556Z,2.50
2022-11-17T23:31:28.583Z,2.60
2022-11-17T23:36:33.512Z,2.70
2022-11-17T23:41:38.704Z,2.60
2022-11-17T23:46:44.522Z,2.70
2022-11-17T23:51:49.716Z,2.80
2022-11-17T23:56:54.907Z,2.80
